createdAt,value
2022-11-05T03:00:42.545Z,0.00
2022-11-05T03:02:21.577Z,0.00
2022-11-05T03:03:52.540Z,0.00
2022-11-05T03:08:15.652Z,0.00
2022-11-05T03:09:49.980Z,0.00
2022-11-05T03:12:14.258Z,0.00
2022-11-05T03:15:42.968Z,0.00
2022-11-05T03:21:17.333Z,0.00
2022-11-05T03:22:25.273Z,0.00
2022-11-05T03:23:22.729Z,0.00
2022-11-05T03:24:17.873Z,0.00
2022-11-05T03:25:20.266Z,0.00
2022-11-05T03:26:20.380Z,0.00
2022-11-05T03:27:19.345Z,0.00
2022-11-05T03:28:22.669Z,0.00
2022-11-05T03:29:18.414Z,0.00
2022-11-05T03:30:19.100Z,0.00
2022-11-05T03:31:18.618Z,0.00
2022-11-05T03:32:19.358Z,0.00
2022-11-05T03:33:21.921Z,0.00
2022-11-05T03:34:25.716Z,0.00
2022-11-05T03:35:43.183Z,0.00
2022-11-05T03:41:16.418Z,0.00
2022-11-05T03:42:19.675Z,0.00
2022-11-05T03:43:17.821Z,0.00
2022-11-05T03:44:51.088Z,0.00
2022-11-05T03:48:09.160Z,0.00
2022-11-05T03:52:47.819Z,0.00
2022-11-05T03:53:56.547Z,0.00
2022-11-05T03:56:12.932Z,0.00
2022-11-05T03:56:51.448Z,0.00
2022-11-05T04:03:45.743Z,0.00
2022-11-05T04:04:46.429Z,0.00
2022-11-05T04:05:46.062Z,0.00
2022-11-05T04:06:52.101Z,0.00
2022-11-05T04:14:47.635Z,0.00
2022-11-05T04:15:53.352Z,0.00
2022-11-05T04:16:50.688Z,0.00
2022-11-05T04:18:17.275Z,0.00
2022-11-05T04:18:47.750Z,0.00
2022-11-05T04:19:54.667Z,0.00
2022-11-05T04:20:48.442Z,0.00
2022-11-05T04:21:49.029Z,0.00
2022-11-05T04:22:48.643Z,0.00
2022-11-05T04:23:57.172Z,0.00
2022-11-05T04:24:51.727Z,0.00
2022-11-05T04:25:48.194Z,0.00
2022-11-05T04:26:47.593Z,0.00
2022-11-05T04:27:52.746Z,0.00
2022-11-05T04:28:51.539Z,0.00
2022-11-05T04:29:50.702Z,0.00
2022-11-05T04:30:48.194Z,0.00
2022-11-05T04:31:53.546Z,0.00
2022-11-05T04:33:06.991Z,0.00
2022-11-05T04:33:49.274Z,0.00
2022-11-05T04:34:48.086Z,0.00
2022-11-05T04:35:49.696Z,0.00
2022-11-05T04:36:47.973Z,0.00
2022-11-05T04:37:48.693Z,0.00
2022-11-05T04:38:49.866Z,0.00
2022-11-05T04:39:48.399Z,0.00
2022-11-05T04:40:48.116Z,0.00
2022-11-05T04:41:47.994Z,0.00
2022-11-05T04:42:47.989Z,0.00
2022-11-05T04:43:47.355Z,0.00
2022-11-05T04:44:47.555Z,0.00
2022-11-05T04:46:41.866Z,0.00
2022-11-05T04:48:44.875Z,0.00
2022-11-05T04:57:50.267Z,0.00
2022-11-05T04:59:04.640Z,0.00
2022-11-05T04:59:52.202Z,0.00
2022-11-05T05:00:59.064Z,0.00
2022-11-05T05:01:54.532Z,0.00
2022-11-05T05:02:55.151Z,0.00
2022-11-05T05:04:02.377Z,0.00
2022-11-05T05:05:00.523Z,0.00
2022-11-05T05:05:53.701Z,0.00
2022-11-05T05:06:52.829Z,0.00
2022-11-05T05:07:51.567Z,0.00
2022-11-05T05:08:51.684Z,0.00
2022-11-05T05:09:51.702Z,0.00
2022-11-05T05:10:53.452Z,0.00
2022-11-05T05:11:50.254Z,0.00
2022-11-05T05:12:51.087Z,0.00
2022-11-05T05:13:53.497Z,0.00
2022-11-05T05:17:26.860Z,0.00
2022-11-05T05:21:02.510Z,0.00
2022-11-05T05:22:11.479Z,0.00
2022-11-05T05:31:08.435Z,0.00
2022-11-05T05:32:14.684Z,0.00
2022-11-05T05:33:08.908Z,0.00
2022-11-05T05:37:01.044Z,0.00
2022-11-05T05:40:35.934Z,0.00
2022-11-05T05:44:05.835Z,0.00
2022-11-05T06:05:02.066Z,0.00
2022-11-05T06:06:42.453Z,0.00
2022-11-05T06:08:48.313Z,0.00
2022-11-05T06:09:23.297Z,0.00
2022-11-05T06:13:08.299Z,0.00
2022-11-05T06:13:37.147Z,0.00
2022-11-05T06:15:03.263Z,0.00
2022-11-05T06:16:42.835Z,0.00
2022-11-05T06:17:57.769Z,0.00
2022-11-05T06:20:37.785Z,0.00
2022-11-05T06:23:58.106Z,5.62
2022-11-05T06:26:25.107Z,5.62
2022-11-05T06:35:24.263Z,16.88
2022-11-05T06:36:35.432Z,16.88
2022-11-05T06:37:29.857Z,16.88
2022-11-05T06:38:36.704Z,16.88
2022-11-05T06:39:32.812Z,16.88
2022-11-05T06:41:05.747Z,22.50
2022-11-05T06:41:30.871Z,22.50
2022-11-05T06:42:30.326Z,22.50
2022-11-05T06:43:34.633Z,22.50
2022-11-05T06:44:39.299Z,22.50
2022-11-05T06:45:41.189Z,28.12
2022-11-05T06:54:02.513Z,39.38
2022-11-05T06:55:14.417Z,45.00
2022-11-05T06:56:10.981Z,45.00
2022-11-05T06:57:26.923Z,45.00
2022-11-05T07:01:14.617Z,50.62
2022-11-05T07:02:18.298Z,56.25
2022-11-05T07:03:15.167Z,56.25
2022-11-05T07:04:15.158Z,56.25
2022-11-05T07:05:20.361Z,56.25
2022-11-05T07:06:24.978Z,61.88
2022-11-05T07:07:24.977Z,61.88
2022-11-05T07:08:19.098Z,61.88
2022-11-05T07:09:21.838Z,61.88
2022-11-05T07:10:33.900Z,61.88
2022-11-05T07:11:19.679Z,67.50
2022-11-05T07:12:42.152Z,67.50
2022-11-05T07:13:23.626Z,67.50
2022-11-05T07:14:22.078Z,67.50
2022-11-05T07:16:16.754Z,73.12
2022-11-05T07:18:14.215Z,73.12
2022-11-05T07:18:33.029Z,73.12
2022-11-05T07:19:49.146Z,73.12
2022-11-05T07:20:34.587Z,73.12
2022-11-05T07:21:22.083Z,73.12
2022-11-05T07:22:22.452Z,73.12
2022-11-05T07:23:24.386Z,73.12
2022-11-05T07:24:20.639Z,73.12
2022-11-05T07:25:21.356Z,78.75
2022-11-05T07:30:20.957Z,84.38
2022-11-05T07:31:29.607Z,84.38
2022-11-05T07:37:14.698Z,90.00
2022-11-05T07:52:52.584Z,106.88
2022-11-05T08:01:35.251Z,112.50
2022-11-05T08:27:17.562Z,123.75
2022-11-05T08:41:07.702Z,135.00
2022-11-05T08:42:09.882Z,135.00
2022-11-05T08:43:09.325Z,135.00
2022-11-05T08:44:09.008Z,135.00
2022-11-05T08:45:09.231Z,135.00
2022-11-05T08:53:03.265Z,140.62
2022-11-05T08:58:40.019Z,140.62
2022-11-05T08:59:43.069Z,140.62
2022-11-05T09:00:41.485Z,140.62
2022-11-05T09:01:41.488Z,146.25
2022-11-05T09:02:41.107Z,146.25
2022-11-05T09:03:40.983Z,146.25
2022-11-05T09:19:12.139Z,157.50
2022-11-05T09:20:12.378Z,163.12
2022-11-05T09:21:12.784Z,163.12
2022-11-05T09:22:14.468Z,163.12
2022-11-05T09:23:26.101Z,163.12
2022-11-05T09:24:14.147Z,163.12
2022-11-05T09:25:50.223Z,168.75
2022-11-05T09:58:54.294Z,219.38
2022-11-05T09:59:55.961Z,219.38
2022-11-05T10:00:55.615Z,225.00
2022-11-05T10:01:55.481Z,225.00
2022-11-05T10:02:55.409Z,225.00
2022-11-05T10:03:55.377Z,230.62
2022-11-05T10:04:55.383Z,230.62
2022-11-05T10:05:55.465Z,236.25
2022-11-05T10:06:55.373Z,236.25
2022-11-05T10:07:55.384Z,236.25
2022-11-05T10:08:55.370Z,247.50
2022-11-05T10:09:55.357Z,258.75
2022-11-05T10:10:55.344Z,264.38
2022-11-05T10:11:55.321Z,286.88
2022-11-05T10:12:55.406Z,292.50
2022-11-05T10:13:55.309Z,303.75
2022-11-05T10:14:55.230Z,202.50
2022-11-05T10:15:55.271Z,326.25
2022-11-05T10:16:55.344Z,264.38
2022-11-05T10:17:55.188Z,275.62
2022-11-05T10:18:55.160Z,230.62
2022-11-05T10:19:55.256Z,196.88
2022-11-05T10:20:55.299Z,191.25
2022-11-05T10:22:10.436Z,180.00
2022-11-05T10:22:57.177Z,168.75
2022-11-05T10:23:55.110Z,168.75
2022-11-05T10:24:55.111Z,270.00
2022-11-05T10:25:55.059Z,146.25
2022-11-05T10:26:55.131Z,129.38
2022-11-05T10:27:55.214Z,123.75
2022-11-05T10:28:55.045Z,118.12
2022-11-05T10:29:55.139Z,118.12
2022-11-05T10:30:55.110Z,118.12
2022-11-05T10:31:55.091Z,118.12
2022-11-05T10:32:56.066Z,123.75
2022-11-05T10:33:55.080Z,123.75
2022-11-05T10:34:55.025Z,135.00
2022-11-05T10:35:54.992Z,135.00
2022-11-05T10:36:54.986Z,129.38
2022-11-05T10:37:55.101Z,129.38
2022-11-05T10:38:54.968Z,129.38
2022-11-05T10:39:54.995Z,129.38
2022-11-05T10:40:54.921Z,129.38
2022-11-05T10:41:55.139Z,129.38
2022-11-05T10:42:55.064Z,135.00
2022-11-05T10:43:54.957Z,264.38
2022-11-05T10:44:54.966Z,258.75
2022-11-05T10:45:55.285Z,258.75
2022-11-05T10:46:54.927Z,264.38
2022-11-05T10:47:54.977Z,270.00
2022-11-05T10:48:54.880Z,275.62
2022-11-05T10:49:54.860Z,275.62
2022-11-05T10:50:54.923Z,281.25
2022-11-05T10:51:54.880Z,286.88
2022-11-05T10:52:54.874Z,292.50
2022-11-05T10:53:58.850Z,292.50
2022-11-05T10:54:56.808Z,275.62
2022-11-05T10:55:54.848Z,264.38
